YPPD Airport Information

Runway Information
Runway 14 Length 8202 ft width 148 ft
Elevation 23 ft Threshold 0 ft Heading 138
Runway 32 Length 8202 ft Width 148 ft
Elevation 33 ft Threshold 0 ft Heading 318
Runway 18 Length 3281 ft width 59 ft
Elevation 27 ft Threshold 0 ft Heading 183
Runway 36 Length 3281 ft Width 59 ft
Elevation 29 ft Threshold 0 ft Heading 3
Airport Frequencies
Type CTAF Name CTAF Frequency 119.9 MHZ
Type FSS Name MELBOURNE Frequency 118.6 MHZ
Airport Navaids
Type VOR-DME Name Port Hedland Frequency 114100 KHZ
Type NDB Name Port Hedland Frequency 260 KHZ
Airport Weather Information & NOTAM
ADDS - METARS form results

(2056 UTC 13 June 2021)
Data provider http://aviationweather.gov/metar/data/
 
METAR text: YPPD 132030Z AUTO 17005KT 9999 // NCD 18/12 Q1014 RF00.0/000.0
Conditions at: YPPD (PORT HEDLAND ARR, AU) observed 2030 UTC 13 June 2021
Temperature: 18.0°C (64°F)
Dewpoint: 12.0°C (54°F) [RH = 68%]
Pressure (altimeter): 29.94 inches Hg (1014.0 mb)
Winds: from the S (170 degrees) at 6 MPH (5 knots; 2.6 m/s)
Visibility: 6 or more miles (10+ km)
Ceiling: at least 12,000 feet AGL
Clouds: sky clear below 12,000 feet AGL
Weather: no significant weather observed at this time

METAR text: YPPD 132000Z AUTO 15005KT 9999 // NCD 18/13 Q1014
Conditions at: YPPD (PORT HEDLAND ARR, AU) observed 2000 UTC 13 June 2021
Temperature: 18.0°C (64°F)
Dewpoint: 13.0°C (55°F) [RH = 73%]
Pressure (altimeter): 29.94 inches Hg (1014.0 mb)
Winds: from the SSE (150 degrees) at 6 MPH (5 knots; 2.6 m/s)
Visibility: 6 or more miles (10+ km)
Ceiling: at least 12,000 feet AGL
Clouds: sky clear below 12,000 feet AGL
Weather: no significant weather observed at this time

Forecast for: YPPD (PORT HEDLAND ARR, AU)
Text: TAF YPPD 131704Z 1318/1418 15007KT CAVOK
Forecast period: 1800 UTC 13 June 2021 to 0100 UTC 14 June 2021
Forecast type: FROM: standard forecast or significant change
Winds: from the SSE (150 degrees) at 8 MPH (7 knots; 3.6 m/s)
Visibility: 6 or more miles (10+ km)
Ceiling: unknown
Clouds: missing
Weather: NSW  (no significant weather)
Text: FM140100 10015KT CAVOK
Forecast period: 0100 to 0700 UTC 14 June 2021
Forecast type: FROM: standard forecast or significant change
Winds: from the E (100 degrees) at 17 MPH (15 knots; 7.7 m/s)
Visibility: 6 or more miles (10+ km)
Ceiling: unknown
Clouds: missing
Weather: NSW  (no significant weather)
Text: FM140700 01010KT CAVOK
Forecast period: 0700 to 1200 UTC 14 June 2021
Forecast type: FROM: standard forecast or significant change
Winds: from the N (10 degrees) at 12 MPH (10 knots; 5.1 m/s)
Visibility: 6 or more miles (10+ km)
Ceiling: unknown
Clouds: missing
Weather: NSW  (no significant weather)
Text: FM141200 16005KT CAVOK
Forecast period: 1200 to 1800 UTC 14 June 2021
Forecast type: FROM: standard forecast or significant change
Winds: from the SSE (160 degrees) at 6 MPH (5 knots; 2.6 m/s)
Visibility: 6 or more miles (10+ km)
Ceiling: unknown
Clouds: missing
Weather: NSW  (no significant weather)